createdAt,value
2022-08-23T00:02:27.073Z,22.50
2022-08-23T00:05:07.555Z,17.05
2022-08-23T00:07:41.322Z,17.07
2022-08-23T00:10:16.509Z,20.58
2022-08-23T00:12:45.081Z,12.15
2022-08-23T00:15:15.835Z,18.83
2022-08-23T00:17:42.750Z,16.95
2022-08-23T00:20:13.462Z,16.55
2022-08-23T00:22:40.596Z,13.85
2022-08-23T00:25:09.732Z,15.43
2022-08-23T00:27:37.162Z,11.57
2022-08-23T00:30:07.653Z,14.45
2022-08-23T00:32:36.920Z,16.48
2022-08-23T00:35:05.345Z,16.10
2022-08-23T00:37:32.796Z,16.90
2022-08-23T00:40:00.885Z,19.63
2022-08-23T00:43:26.457Z,19.20
2022-08-23T00:46:39.501Z,17.20
2022-08-23T00:49:10.161Z,20.73
2022-08-23T00:51:52.751Z,14.65
2022-08-23T00:54:23.302Z,15.23
2022-08-23T00:56:51.182Z,13.73
2022-08-23T00:59:18.578Z,16.25
2022-08-23T01:01:45.531Z,13.82
2022-08-23T01:04:14.024Z,14.05
2022-08-23T01:06:50.832Z,16.17
2022-08-23T01:09:26.839Z,15.63
2022-08-23T01:12:31.125Z,19.35
2022-08-23T01:15:10.000Z,16.02
2022-08-23T01:17:50.060Z,16.23
2022-08-23T01:20:27.038Z,13.20
2022-08-23T01:23:02.271Z,15.43
2022-08-23T01:25:32.879Z,18.20
2022-08-23T01:28:00.523Z,14.23
2022-08-23T01:30:32.791Z,13.05
2022-08-23T01:33:03.407Z,15.85
2022-08-23T01:35:54.894Z,15.98
2022-08-23T01:38:23.733Z,13.90
2022-08-23T01:40:51.442Z,17.85
2022-08-23T01:43:21.477Z,16.52
2022-08-23T01:45:51.684Z,12.32
2022-08-23T01:48:21.303Z,14.77
2022-08-23T01:50:48.594Z,16.27
2022-08-23T01:53:17.188Z,17.02
2022-08-23T01:55:48.964Z,12.15
2022-08-23T01:58:18.092Z,14.63
2022-08-23T02:00:46.164Z,12.23
2022-08-23T02:03:13.896Z,13.45
2022-08-23T02:05:42.746Z,15.32
2022-08-23T02:08:31.389Z,20.65
2022-08-23T02:11:00.632Z,17.90
2022-08-23T02:13:27.540Z,12.75
2022-08-23T02:15:59.237Z,15.75
2022-08-23T02:18:26.771Z,16.83
2022-08-23T02:20:53.616Z,14.57
2022-08-23T02:23:22.456Z,16.17
2022-08-23T02:25:51.739Z,15.65
2022-08-23T02:28:20.908Z,14.88
2022-08-23T02:30:49.873Z,18.13
2022-08-23T02:33:17.341Z,17.60
2022-08-23T02:35:44.987Z,14.50
2022-08-23T02:38:13.359Z,15.25
2022-08-23T02:40:42.458Z,20.75
2022-08-23T02:43:10.215Z,18.63
2022-08-23T02:45:39.127Z,19.10
2022-08-23T02:48:08.301Z,20.17
2022-08-23T02:50:43.439Z,20.05
2022-08-23T02:53:10.408Z,14.75
2022-08-23T02:55:40.631Z,19.45
2022-08-23T02:58:07.553Z,20.10
2022-08-23T03:01:10.357Z,18.88
2022-08-23T03:03:37.865Z,17.13
2022-08-23T03:06:25.374Z,15.52
2022-08-23T03:09:01.540Z,21.38
2022-08-23T03:11:29.400Z,13.93
2022-08-23T03:13:57.784Z,18.38
2022-08-23T03:16:43.264Z,16.90
2022-08-23T03:19:38.914Z,17.00
2022-08-23T03:22:09.729Z,18.88
2022-08-23T03:24:36.633Z,18.38
2022-08-23T03:27:05.054Z,24.30
2022-08-23T03:29:32.501Z,19.83
2022-08-23T03:32:02.235Z,20.13
2022-08-23T03:34:32.540Z,21.83
2022-08-23T03:36:59.498Z,17.95
2022-08-23T03:39:27.032Z,22.55
2022-08-23T03:41:56.230Z,21.58
2022-08-23T03:44:25.089Z,25.58
2022-08-23T03:46:51.957Z,18.65
2022-08-23T03:49:19.365Z,18.67
2022-08-23T03:51:52.758Z,23.33
2022-08-23T03:54:20.606Z,23.50
2022-08-23T03:57:01.185Z,21.08
2022-08-23T03:59:33.758Z,20.60
2022-08-23T04:02:01.470Z,25.30
2022-08-23T04:04:29.835Z,21.67
2022-08-23T04:07:23.617Z,24.75
2022-08-23T04:09:55.288Z,23.85
2022-08-23T04:12:24.509Z,31.70
2022-08-23T04:14:52.402Z,29.98
2022-08-23T04:17:20.981Z,28.23
2022-08-23T04:19:48.363Z,20.80
2022-08-23T04:22:17.709Z,23.42
2022-08-23T04:24:45.315Z,24.30
2022-08-23T04:27:13.144Z,24.45
2022-08-23T04:29:40.307Z,21.42
2022-08-23T04:32:11.606Z,21.27
2022-08-23T04:34:40.431Z,22.65
2022-08-23T04:37:09.592Z,28.55
2022-08-23T04:39:58.795Z,23.42
2022-08-23T04:42:31.944Z,28.52
2022-08-23T04:45:01.524Z,24.38
2022-08-23T04:47:29.656Z,23.92
2022-08-23T04:49:59.870Z,28.45
2022-08-23T04:52:26.717Z,25.45
2022-08-23T04:54:54.582Z,33.00
2022-08-23T04:57:33.513Z,29.55
2022-08-23T05:00:00.995Z,24.48
2022-08-23T05:02:28.183Z,32.20
2022-08-23T05:04:56.229Z,28.42
2022-08-23T05:07:30.976Z,32.47
2022-08-23T05:10:13.209Z,32.67
2022-08-23T05:15:10.992Z,24.58
2022-08-23T05:17:42.139Z,33.03
2022-08-23T05:20:10.518Z,33.65
2022-08-23T05:22:41.173Z,27.52
2022-08-23T05:25:49.094Z,28.10
2022-08-23T05:28:28.709Z,24.70
2022-08-23T05:31:04.618Z,29.90
2022-08-23T05:33:41.426Z,32.70
2022-08-23T05:36:11.802Z,26.65
2022-08-23T05:38:39.204Z,28.60
2022-08-23T05:41:08.851Z,30.52
2022-08-23T05:43:36.797Z,29.65
2022-08-23T05:46:12.997Z,26.00
2022-08-23T05:48:47.059Z,23.38
2022-08-23T05:51:24.498Z,22.92
2022-08-23T05:53:54.538Z,26.85
2022-08-23T05:56:27.755Z,26.30
2022-08-23T05:59:00.025Z,22.42
2022-08-23T06:01:31.440Z,18.70
2022-08-23T06:04:08.185Z,19.40
2022-08-23T06:06:37.449Z,18.00
2022-08-23T06:09:07.735Z,20.80
2022-08-23T06:11:36.616Z,18.33
2022-08-23T06:14:09.405Z,17.50
2022-08-23T06:16:43.635Z,14.98
2022-08-23T06:19:14.209Z,15.95
2022-08-23T06:21:51.339Z,20.20
2022-08-23T06:24:32.258Z,19.65
2022-08-23T06:27:18.005Z,16.08
2022-08-23T06:29:46.039Z,17.25
2022-08-23T06:32:45.027Z,16.15
2022-08-23T06:35:38.887Z,12.88
2022-08-23T06:38:31.975Z,17.58
2022-08-23T06:41:05.364Z,21.30
2022-08-23T06:44:01.436Z,16.25
2022-08-23T06:46:33.109Z,19.45
2022-08-23T06:49:00.890Z,17.02
2022-08-23T06:51:48.271Z,13.40
2022-08-23T06:54:21.208Z,14.43
2022-08-23T06:56:54.133Z,15.45
2022-08-23T06:59:31.350Z,14.20
2022-08-23T07:05:05.947Z,14.48
2022-08-23T07:07:51.015Z,11.07
2022-08-23T07:10:18.694Z,12.10
2022-08-23T07:12:45.562Z,11.75
2022-08-23T07:15:13.715Z,18.05
2022-08-23T07:17:44.018Z,10.90
2022-08-23T07:20:10.975Z,16.75
2022-08-23T07:22:40.522Z,13.88
2022-08-23T07:25:09.035Z,15.73
2022-08-23T07:27:39.542Z,11.45
2022-08-23T07:30:08.321Z,11.30
2022-08-23T07:32:37.509Z,9.75
2022-08-23T07:35:24.756Z,8.93
2022-08-23T07:37:57.815Z,10.57
2022-08-23T07:40:30.066Z,10.07
2022-08-23T07:43:03.841Z,5.50
2022-08-23T07:45:35.377Z,14.85
2022-08-23T07:48:04.416Z,7.32
2022-08-23T07:50:37.993Z,7.32
2022-08-23T07:53:37.392Z,9.20
2022-08-23T07:56:10.286Z,9.10
2022-08-23T07:59:09.080Z,9.63
2022-08-23T08:01:55.199Z,10.80
2022-08-23T08:04:24.307Z,9.98
2022-08-23T08:07:10.365Z,10.77
2022-08-23T08:09:42.745Z,7.60
2022-08-23T08:12:11.125Z,12.52
2022-08-23T08:14:42.077Z,10.25
2022-08-23T08:17:10.985Z,7.18
2022-08-23T08:19:58.200Z,11.27
2022-08-23T08:22:47.537Z,14.13
2022-08-23T08:25:34.363Z,11.15
2022-08-23T08:28:04.203Z,11.23
2022-08-23T08:30:31.504Z,17.42
2022-08-23T08:32:59.473Z,9.43
2022-08-23T08:35:27.453Z,12.90
2022-08-23T08:37:54.882Z,10.98
2022-08-23T08:40:33.869Z,12.60
2022-08-23T08:43:34.229Z,20.30
2022-08-23T08:46:06.111Z,14.20
2022-08-23T08:48:50.072Z,11.30
2022-08-23T08:51:45.384Z,16.30
2022-08-23T08:54:19.787Z,15.85
2022-08-23T08:56:55.941Z,17.92
2022-08-23T08:59:47.886Z,20.02
2022-08-23T09:02:32.506Z,16.63
2022-08-23T09:05:14.689Z,13.55
2022-08-23T09:08:12.032Z,15.00
2022-08-23T09:10:51.739Z,14.55
2022-08-23T09:13:48.232Z,12.48
2022-08-23T09:16:32.630Z,7.28
2022-08-23T09:19:01.808Z,10.90
2022-08-23T09:21:40.654Z,14.93
2022-08-23T09:24:08.330Z,13.85
2022-08-23T09:26:49.059Z,15.50
2022-08-23T09:29:27.438Z,9.15
2022-08-23T09:32:03.553Z,13.73
2022-08-23T09:34:36.077Z,12.70
2022-08-23T09:37:13.658Z,18.80
2022-08-23T09:42:27.232Z,15.23
2022-08-23T09:44:54.626Z,20.30
2022-08-23T09:47:41.740Z,18.08
2022-08-23T09:50:29.630Z,16.77
2022-08-23T09:56:04.435Z,21.08
2022-08-23T09:58:41.664Z,15.93
2022-08-23T10:01:21.948Z,10.75
2022-08-23T10:04:08.679Z,13.27
2022-08-23T10:06:36.220Z,14.73
2022-08-23T10:09:08.288Z,9.65
2022-08-23T10:11:46.277Z,13.75
2022-08-23T10:14:17.898Z,14.85
2022-08-23T10:17:04.715Z,12.27
2022-08-23T10:20:01.085Z,9.38
2022-08-23T10:22:46.107Z,7.95
2022-08-23T10:25:33.545Z,12.27
2022-08-23T10:29:20.252Z,9.05
2022-08-23T10:31:59.005Z,7.50
2022-08-23T10:34:50.421Z,10.80
2022-08-23T10:37:31.156Z,6.18
2022-08-23T10:40:21.523Z,6.13
2022-08-23T10:43:30.814Z,2.85
2022-08-23T10:46:01.811Z,4.07
2022-08-23T10:48:48.988Z,4.22
2022-08-23T10:51:23.271Z,4.05
2022-08-23T10:54:16.238Z,6.68
2022-08-23T10:56:51.184Z,3.67
2022-08-23T10:59:25.513Z,3.08
2022-08-23T11:02:01.238Z,7.60
2022-08-23T11:04:51.901Z,5.43
2022-08-23T11:07:37.313Z,5.15
2022-08-23T11:10:29.864Z,5.45
2022-08-23T11:13:08.921Z,1.85
2022-08-23T11:15:55.139Z,3.97
2022-08-23T11:18:42.720Z,2.15
2022-08-23T11:21:19.204Z,2.15
2022-08-23T11:23:59.834Z,3.88
2022-08-23T11:26:36.255Z,1.73
2022-08-23T11:29:06.512Z,2.97
2022-08-23T11:31:57.813Z,4.15
2022-08-23T11:34:48.924Z,4.88
2022-08-23T11:37:18.898Z,3.40
2022-08-23T11:39:59.599Z,5.28
2022-08-23T11:42:38.638Z,3.97
2022-08-23T11:45:24.585Z,5.10
2022-08-23T11:48:25.406Z,2.45
2022-08-23T11:51:11.663Z,4.15
2022-08-23T11:53:53.593Z,8.10
2022-08-23T11:56:43.262Z,1.95
2022-08-23T11:59:24.338Z,3.25
2022-08-23T12:01:51.689Z,3.47
2022-08-23T12:04:38.648Z,4.40
2022-08-23T12:07:12.749Z,3.63
2022-08-23T12:09:43.017Z,4.80
2022-08-23T12:12:23.705Z,4.65
2022-08-23T12:14:54.901Z,2.30
2022-08-23T12:17:26.047Z,5.37
2022-08-23T12:20:01.124Z,3.45
2022-08-23T12:23:02.181Z,5.05
2022-08-23T12:25:31.896Z,9.40
2022-08-23T12:28:27.538Z,7.57
2022-08-23T12:31:07.939Z,4.60
2022-08-23T12:33:42.182Z,1.95
2022-08-23T12:36:30.058Z,3.92
2022-08-23T12:39:25.517Z,4.03
2022-08-23T12:42:15.818Z,3.40
2022-08-23T12:44:45.853Z,4.40
2022-08-23T12:47:21.583Z,2.78
2022-08-23T12:50:33.062Z,2.58
2022-08-23T12:53:12.471Z,2.92
2022-08-23T12:55:52.012Z,4.88
2022-08-23T12:58:31.686Z,1.42
2022-08-23T13:01:05.397Z,3.10
2022-08-23T13:03:39.622Z,5.05
2022-08-23T13:06:11.923Z,4.93
2022-08-23T13:08:44.789Z,3.35
2022-08-23T13:11:14.469Z,7.90
2022-08-23T13:13:44.086Z,5.43
2022-08-23T13:16:27.342Z,3.17
2022-08-23T13:18:56.602Z,3.78
2022-08-23T13:21:23.428Z,4.25
2022-08-23T13:23:55.744Z,2.35
2022-08-23T13:26:24.870Z,3.53
2022-08-23T13:29:01.990Z,3.55
2022-08-23T13:32:04.148Z,2.28
2022-08-23T13:34:40.847Z,1.83
2022-08-23T13:37:21.225Z,4.00
2022-08-23T13:39:52.274Z,3.30
2022-08-23T13:42:54.563Z,6.10
2022-08-23T13:45:36.661Z,3.10
2022-08-23T13:50:46.237Z,1.95
2022-08-23T13:53:15.602Z,5.60
2022-08-23T13:55:53.013Z,2.53
2022-08-23T13:58:32.888Z,2.67
2022-08-23T14:01:18.172Z,2.08
2022-08-23T14:03:45.375Z,4.30
2022-08-23T14:06:12.583Z,3.90
2022-08-23T14:08:39.660Z,8.68
2022-08-23T14:11:06.943Z,4.40
2022-08-23T14:13:36.748Z,1.30
2022-08-23T14:21:41.432Z,2.85
2022-08-23T14:24:08.547Z,1.40
2022-08-23T14:26:35.476Z,3.28
2022-08-23T14:29:02.325Z,5.90
2022-08-23T14:31:29.194Z,2.83
2022-08-23T14:34:01.374Z,1.38
2022-08-23T14:36:30.034Z,3.08
2022-08-23T14:38:56.969Z,5.03
2022-08-23T14:41:26.676Z,3.88
2022-08-23T14:43:54.177Z,3.13
2022-08-23T14:46:24.241Z,3.83
2022-08-23T14:48:51.117Z,2.85
2022-08-23T14:51:43.192Z,1.85
2022-08-23T14:54:17.977Z,4.75
2022-08-23T14:56:44.855Z,1.75
2022-08-23T14:59:12.110Z,2.20
2022-08-23T15:01:43.544Z,2.70
2022-08-23T15:04:10.605Z,2.65
2022-08-23T15:06:54.925Z,3.13
2022-08-23T15:09:27.958Z,2.58
2022-08-23T15:14:42.747Z,4.10
2022-08-23T15:17:10.840Z,1.92
2022-08-23T15:19:37.860Z,2.00
2022-08-23T15:22:21.632Z,3.67
2022-08-23T15:27:17.500Z,4.10
2022-08-23T15:29:44.393Z,3.50
2022-08-23T15:32:12.821Z,3.20
2022-08-23T15:34:46.214Z,3.22
2022-08-23T15:37:14.490Z,2.55
2022-08-23T15:39:42.391Z,3.10
2022-08-23T15:42:09.679Z,3.30
2022-08-23T15:44:37.750Z,6.63
2022-08-23T15:47:13.738Z,4.03
2022-08-23T15:49:41.655Z,2.40
2022-08-23T15:52:08.553Z,5.75
2022-08-23T15:54:36.602Z,2.08
2022-08-23T15:57:04.620Z,3.40
2022-08-23T15:59:36.041Z,1.48
2022-08-23T16:02:03.705Z,3.78
2022-08-23T16:04:35.546Z,4.22
2022-08-23T16:07:05.765Z,6.45
2022-08-23T16:09:34.842Z,3.17
2022-08-23T16:12:04.022Z,3.17
2022-08-23T16:14:34.094Z,3.03
2022-08-23T16:17:00.982Z,7.13
2022-08-23T16:19:28.295Z,3.17
2022-08-23T16:21:55.820Z,4.38
2022-08-23T16:24:24.561Z,5.70
2022-08-23T16:26:52.430Z,1.95
2022-08-23T16:29:20.754Z,4.05
2022-08-23T16:31:47.934Z,4.25
2022-08-23T16:34:18.153Z,1.70
2022-08-23T16:36:50.328Z,3.85
2022-08-23T16:39:18.228Z,3.55
2022-08-23T16:41:45.218Z,4.20
2022-08-23T16:44:12.250Z,4.20
2022-08-23T16:46:43.845Z,2.83
2022-08-23T16:49:16.531Z,5.07
2022-08-23T16:51:44.254Z,3.72
2022-08-23T16:54:11.721Z,1.50
2022-08-23T16:56:41.262Z,2.15
2022-08-23T16:59:10.671Z,4.80
2022-08-23T17:01:56.205Z,2.00
2022-08-23T17:04:25.145Z,4.05
2022-08-23T17:06:58.739Z,2.85
2022-08-23T17:09:28.342Z,4.18
2022-08-23T17:11:58.081Z,9.25
2022-08-23T17:14:26.583Z,2.28
2022-08-23T17:16:53.628Z,3.25
2022-08-23T17:19:21.707Z,1.50
2022-08-23T17:21:48.983Z,2.17
2022-08-23T17:24:15.846Z,2.10
2022-08-23T17:26:43.010Z,2.22
2022-08-23T17:29:10.007Z,2.17
2022-08-23T17:31:37.831Z,8.32
2022-08-23T17:34:06.505Z,10.18
2022-08-23T17:36:38.424Z,2.33
2022-08-23T17:39:09.250Z,7.40
2022-08-23T17:41:36.430Z,3.50
2022-08-23T17:44:05.311Z,3.67
2022-08-23T17:46:38.412Z,6.45
2022-08-23T17:49:07.699Z,5.95
2022-08-23T17:51:36.707Z,4.18
2022-08-23T17:54:05.072Z,2.15
2022-08-23T17:56:33.431Z,13.10
2022-08-23T17:59:01.393Z,3.85
2022-08-23T18:01:31.256Z,3.75
2022-08-23T18:03:58.607Z,4.57
2022-08-23T18:06:26.423Z,3.30
2022-08-23T18:08:55.254Z,2.88
2022-08-23T18:11:22.914Z,6.53
2022-08-23T18:13:50.213Z,2.80
2022-08-23T18:16:17.501Z,2.10
2022-08-23T18:18:44.551Z,5.00
2022-08-23T18:21:14.673Z,6.30
2022-08-23T18:23:44.175Z,6.03
2022-08-23T18:26:32.707Z,4.63
2022-08-23T18:29:01.301Z,3.72
2022-08-23T18:31:28.378Z,4.47
2022-08-23T18:34:00.206Z,4.22
2022-08-23T18:38:57.000Z,3.35
2022-08-23T18:41:23.907Z,3.83
2022-08-23T18:43:51.229Z,6.53
2022-08-23T18:46:18.934Z,5.07
2022-08-23T18:48:53.291Z,12.82
2022-08-23T18:51:22.330Z,4.38
2022-08-23T18:53:51.354Z,6.05
2022-08-23T18:56:18.256Z,7.25
2022-08-23T18:58:45.438Z,6.03
2022-08-23T19:01:30.693Z,8.45
2022-08-23T19:04:00.321Z,7.00
2022-08-23T19:06:28.281Z,3.65
2022-08-23T19:08:55.477Z,5.50
2022-08-23T19:11:23.399Z,7.43
2022-08-23T19:13:51.344Z,3.50
2022-08-23T19:16:19.550Z,4.07
2022-08-23T19:18:49.621Z,6.65
2022-08-23T19:21:20.594Z,8.38
2022-08-23T19:23:50.191Z,9.05
2022-08-23T19:26:19.722Z,6.45
2022-08-23T19:28:47.222Z,3.00
2022-08-23T19:31:14.721Z,5.35
2022-08-23T19:33:41.784Z,6.50
2022-08-23T19:36:23.769Z,7.35
2022-08-23T19:38:57.124Z,7.63
2022-08-23T19:41:25.144Z,8.20
2022-08-23T19:43:52.110Z,9.35
2022-08-23T19:46:19.251Z,13.80
2022-08-23T19:48:47.285Z,7.57
2022-08-23T19:51:20.326Z,6.57
2022-08-23T19:54:04.937Z,9.57
2022-08-23T19:56:45.728Z,9.43
2022-08-23T19:59:16.566Z,9.95
2022-08-23T20:01:43.643Z,4.80
2022-08-23T20:04:11.004Z,9.25
2022-08-23T20:06:40.257Z,5.13
2022-08-23T20:09:11.276Z,7.78
2022-08-23T20:11:42.557Z,5.15
2022-08-23T20:14:10.922Z,5.82
2022-08-23T20:16:40.738Z,4.97
2022-08-23T20:19:09.396Z,6.47
2022-08-23T20:21:37.341Z,5.03
2022-08-23T20:24:05.461Z,8.63
2022-08-23T20:26:35.682Z,4.45
2022-08-23T20:29:04.105Z,6.85
2022-08-23T20:31:35.868Z,4.20
2022-08-23T20:34:05.642Z,3.97
2022-08-23T20:36:35.166Z,4.80
2022-08-23T20:39:02.280Z,5.68
2022-08-23T20:41:33.360Z,6.57
2022-08-23T20:44:02.218Z,4.88
2022-08-23T20:46:29.778Z,7.90
2022-08-23T20:48:58.368Z,8.48
2022-08-23T20:51:27.162Z,7.28
2022-08-23T20:53:56.473Z,6.75
2022-08-23T20:56:25.124Z,7.57
2022-08-23T20:58:52.485Z,5.22
2022-08-23T21:01:19.577Z,7.78
2022-08-23T21:03:47.966Z,7.28
2022-08-23T21:06:30.323Z,8.32
2022-08-23T21:09:00.029Z,10.02
2022-08-23T21:11:28.734Z,7.18
2022-08-23T21:13:57.207Z,9.13
2022-08-23T21:16:25.284Z,7.10
2022-08-23T21:18:55.496Z,6.18
2022-08-23T21:21:24.294Z,9.50
2022-08-23T21:23:51.967Z,10.35
2022-08-23T21:26:20.018Z,4.68
2022-08-23T21:28:46.916Z,5.35
2022-08-23T21:31:25.369Z,5.13
2022-08-23T21:33:53.720Z,9.40
2022-08-23T21:36:22.490Z,8.40
2022-08-23T21:38:50.102Z,8.07
2022-08-23T21:41:33.855Z,6.93
2022-08-23T21:44:02.418Z,6.25
2022-08-23T21:46:29.741Z,7.32
2022-08-23T21:48:56.669Z,7.10
2022-08-23T21:51:23.877Z,7.45
2022-08-23T21:53:50.868Z,8.00
2022-08-23T21:56:19.236Z,8.10
2022-08-23T21:58:50.462Z,9.38
2022-08-23T22:01:18.737Z,5.80
2022-08-23T22:03:45.738Z,8.82
2022-08-23T22:06:15.889Z,7.40
2022-08-23T22:08:43.863Z,7.43
2022-08-23T22:11:14.987Z,8.48
2022-08-23T22:13:42.569Z,7.95
2022-08-23T22:16:09.706Z,8.15
2022-08-23T22:18:36.922Z,8.85
2022-08-23T22:21:04.785Z,7.72
2022-08-23T22:23:32.225Z,8.70
2022-08-23T22:26:01.720Z,7.57
2022-08-23T22:28:31.388Z,5.90
2022-08-23T22:31:01.330Z,6.95
2022-08-23T22:33:28.778Z,9.45
2022-08-23T22:36:01.600Z,6.15
2022-08-23T22:38:28.623Z,7.13
2022-08-23T22:40:55.456Z,7.85
2022-08-23T22:43:22.421Z,9.30
2022-08-23T22:45:51.000Z,5.63
2022-08-23T22:48:18.036Z,4.22
2022-08-23T22:50:44.909Z,6.18
2022-08-23T22:53:12.393Z,5.20
2022-08-23T22:55:40.774Z,7.90
2022-08-23T22:58:08.784Z,5.18
2022-08-23T23:00:42.465Z,6.63
2022-08-23T23:03:10.605Z,4.72
2022-08-23T23:05:38.749Z,9.20
2022-08-23T23:08:25.012Z,7.65
2022-08-23T23:10:51.939Z,13.40
2022-08-23T23:13:24.074Z,7.15
2022-08-23T23:15:51.676Z,5.25
2022-08-23T23:18:19.533Z,8.55
2022-08-23T23:20:46.858Z,9.20
2022-08-23T23:23:17.715Z,8.43
2022-08-23T23:25:46.111Z,10.18
2022-08-23T23:28:14.345Z,9.20
2022-08-23T23:30:43.369Z,7.40
2022-08-23T23:33:10.324Z,6.78
2022-08-23T23:35:37.575Z,9.07
2022-08-23T23:38:05.981Z,8.35
2022-08-23T23:40:36.121Z,9.13
2022-08-23T23:43:03.559Z,9.05
2022-08-23T23:45:30.514Z,10.25
2022-08-23T23:47:57.830Z,10.05
2022-08-23T23:50:27.166Z,12.48
2022-08-23T23:52:54.408Z,8.32
2022-08-23T23:55:22.706Z,11.68
2022-08-23T23:57:49.778Z,6.47
